sensor_id;sensor_type;location;lat;lon;timestamp;P1;durP1;ratioP1;P2;durP2;ratioP2
70071;SDS011;57434;42.794;23.302;2023-01-31T00:01:20;23.92;;;8.38;;
70071;SDS011;57434;42.794;23.302;2023-01-31T00:02:23;19.15;;;7.43;;
70071;SDS011;57434;42.794;23.302;2023-01-31T00:03:25;21.00;;;7.68;;
70071;SDS011;57434;42.794;23.302;2023-01-31T00:04:27;20.33;;;8.35;;
70071;SDS011;57434;42.794;23.302;2023-01-31T00:05:29;26.05;;;8.77;;
70071;SDS011;57434;42.794;23.302;2023-01-31T00:06:31;24.70;;;7.63;;
70071;SDS011;57434;42.794;23.302;2023-01-31T00:07:35;24.55;;;7.88;;
70071;SDS011;57434;42.794;23.302;2023-01-31T00:08:37;20.75;;;7.68;;
70071;SDS011;57434;42.794;23.302;2023-01-31T00:09:39;19.98;;;8.38;;
70071;SDS011;57434;42.794;23.302;2023-01-31T00:10:41;24.13;;;8.10;;
70071;SDS011;57434;42.794;23.302;2023-01-31T00:11:43;22.48;;;8.52;;
70071;SDS011;57434;42.794;23.302;2023-01-31T00:12:45;27.50;;;8.75;;
70071;SDS011;57434;42.794;23.302;2023-01-31T00:13:47;22.55;;;8.80;;
70071;SDS011;57434;42.794;23.302;2023-01-31T00:14:49;20.38;;;8.20;;
70071;SDS011;57434;42.794;23.302;2023-01-31T00:15:51;23.13;;;7.90;;
70071;SDS011;57434;42.794;23.302;2023-01-31T00:16:56;21.10;;;8.47;;
70071;SDS011;57434;42.794;23.302;2023-01-31T00:17:58;24.48;;;8.73;;
70071;SDS011;57434;42.794;23.302;2023-01-31T00:18:59;22.23;;;8.07;;
70071;SDS011;57434;42.794;23.302;2023-01-31T00:20:02;19.35;;;7.75;;
70071;SDS011;57434;42.794;23.302;2023-01-31T00:21:08;21.83;;;8.10;;
70071;SDS011;57434;42.794;23.302;2023-01-31T00:22:10;23.08;;;8.80;;
70071;SDS011;57434;42.794;23.302;2023-01-31T00:23:12;23.17;;;8.10;;
70071;SDS011;57434;42.794;23.302;2023-01-31T00:24:13;21.65;;;8.38;;
70071;SDS011;57434;42.794;23.302;2023-01-31T00:25:16;22.00;;;8.05;;
70071;SDS011;57434;42.794;23.302;2023-01-31T00:26:40;20.02;;;7.25;;
70071;SDS011;57434;42.794;23.302;2023-01-31T00:27:40;18.77;;;6.80;;
70071;SDS011;57434;42.794;23.302;2023-01-31T00:28:42;23.30;;;9.00;;
70071;SDS011;57434;42.794;23.302;2023-01-31T00:29:45;20.77;;;7.68;;
70071;SDS011;57434;42.794;23.302;2023-01-31T00:30:47;20.58;;;8.45;;
70071;SDS011;57434;42.794;23.302;2023-01-31T00:31:49;20.42;;;8.18;;
70071;SDS011;57434;42.794;23.302;2023-01-31T00:32:51;18.98;;;7.18;;
70071;SDS011;57434;42.794;23.302;2023-01-31T00:33:53;21.27;;;8.30;;
70071;SDS011;57434;42.794;23.302;2023-01-31T00:34:55;20.13;;;7.45;;
70071;SDS011;57434;42.794;23.302;2023-01-31T00:35:57;23.00;;;8.25;;
70071;SDS011;57434;42.794;23.302;2023-01-31T00:36:59;22.73;;;7.95;;
70071;SDS011;57434;42.794;23.302;2023-01-31T00:38:01;19.63;;;7.50;;
70071;SDS011;57434;42.794;23.302;2023-01-31T00:39:03;21.58;;;8.27;;
70071;SDS011;57434;42.794;23.302;2023-01-31T00:40:06;19.60;;;7.60;;
70071;SDS011;57434;42.794;23.302;2023-01-31T00:41:08;25.08;;;8.90;;
70071;SDS011;57434;42.794;23.302;2023-01-31T00:42:10;19.27;;;7.88;;
70071;SDS011;57434;42.794;23.302;2023-01-31T00:43:12;29.55;;;8.77;;
70071;SDS011;57434;42.794;23.302;2023-01-31T00:44:14;23.40;;;8.02;;
70071;SDS011;57434;42.794;23.302;2023-01-31T00:45:15;20.42;;;8.02;;
70071;SDS011;57434;42.794;23.302;2023-01-31T00:46:18;19.70;;;8.32;;
70071;SDS011;57434;42.794;23.302;2023-01-31T00:47:20;18.88;;;6.60;;
70071;SDS011;57434;42.794;23.302;2023-01-31T00:48:22;21.50;;;8.53;;
70071;SDS011;57434;42.794;23.302;2023-01-31T00:49:24;21.33;;;7.40;;
70071;SDS011;57434;42.794;23.302;2023-01-31T00:50:25;20.20;;;8.13;;
70071;SDS011;57434;42.794;23.302;2023-01-31T00:51:27;21.77;;;7.53;;
70071;SDS011;57434;42.794;23.302;2023-01-31T00:52:29;20.90;;;7.35;;
70071;SDS011;57434;42.794;23.302;2023-01-31T00:53:31;22.08;;;8.25;;
70071;SDS011;57434;42.794;23.302;2023-01-31T00:54:33;17.85;;;6.90;;
70071;SDS011;57434;42.794;23.302;2023-01-31T00:55:35;23.33;;;8.55;;
70071;SDS011;57434;42.794;23.302;2023-01-31T00:56:37;22.58;;;8.20;;
70071;SDS011;57434;42.794;23.302;2023-01-31T00:57:39;21.65;;;8.48;;
70071;SDS011;57434;42.794;23.302;2023-01-31T00:58:41;19.80;;;7.90;;
70071;SDS011;57434;42.794;23.302;2023-01-31T00:59:43;20.70;;;7.65;;
70071;SDS011;57434;42.794;23.302;2023-01-31T01:00:45;24.98;;;9.07;;
70071;SDS011;57434;42.794;23.302;2023-01-31T01:01:47;20.48;;;8.02;;
70071;SDS011;57434;42.794;23.302;2023-01-31T01:02:49;19.63;;;8.32;;
70071;SDS011;57434;42.794;23.302;2023-01-31T01:03:50;25.42;;;8.48;;
70071;SDS011;57434;42.794;23.302;2023-01-31T01:04:53;23.65;;;8.82;;
70071;SDS011;57434;42.794;23.302;2023-01-31T01:05:55;27.20;;;9.52;;
70071;SDS011;57434;42.794;23.302;2023-01-31T01:06:56;21.73;;;8.23;;
70071;SDS011;57434;42.794;23.302;2023-01-31T01:07:58;26.08;;;8.85;;
70071;SDS011;57434;42.794;23.302;2023-01-31T01:09:00;21.63;;;7.80;;
70071;SDS011;57434;42.794;23.302;2023-01-31T01:10:02;23.50;;;8.43;;
70071;SDS011;57434;42.794;23.302;2023-01-31T01:12:12;22.73;;;8.00;;
70071;SDS011;57434;42.794;23.302;2023-01-31T01:13:14;19.98;;;8.23;;
70071;SDS011;57434;42.794;23.302;2023-01-31T01:14:15;16.42;;;7.40;;
70071;SDS011;57434;42.794;23.302;2023-01-31T01:15:19;18.10;;;7.22;;
70071;SDS011;57434;42.794;23.302;2023-01-31T01:16:23;15.85;;;6.68;;
70071;SDS011;57434;42.794;23.302;2023-01-31T01:17:26;20.75;;;7.63;;
70071;SDS011;57434;42.794;23.302;2023-01-31T01:18:28;20.73;;;7.72;;
70071;SDS011;57434;42.794;23.302;2023-01-31T01:19:30;17.10;;;5.93;;
70071;SDS011;57434;42.794;23.302;2023-01-31T01:20:33;20.88;;;7.38;;
70071;SDS011;57434;42.794;23.302;2023-01-31T01:21:35;20.13;;;8.10;;
70071;SDS011;57434;42.794;23.302;2023-01-31T01:22:37;17.77;;;6.97;;
70071;SDS011;57434;42.794;23.302;2023-01-31T01:23:39;16.80;;;7.80;;
70071;SDS011;57434;42.794;23.302;2023-01-31T01:24:42;23.33;;;7.18;;
70071;SDS011;57434;42.794;23.302;2023-01-31T01:25:44;22.05;;;8.13;;
70071;SDS011;57434;42.794;23.302;2023-01-31T01:26:46;22.10;;;8.05;;
70071;SDS011;57434;42.794;23.302;2023-01-31T01:27:48;31.58;;;11.52;;
70071;SDS011;57434;42.794;23.302;2023-01-31T01:28:51;28.27;;;10.52;;
70071;SDS011;57434;42.794;23.302;2023-01-31T01:29:54;31.10;;;11.43;;
70071;SDS011;57434;42.794;23.302;2023-01-31T01:30:56;24.42;;;10.32;;
70071;SDS011;57434;42.794;23.302;2023-01-31T01:31:58;22.27;;;9.95;;
70071;SDS011;57434;42.794;23.302;2023-01-31T01:33:00;24.63;;;9.95;;
70071;SDS011;57434;42.794;23.302;2023-01-31T01:34:03;22.88;;;9.50;;
70071;SDS011;57434;42.794;23.302;2023-01-31T01:35:06;21.50;;;8.10;;
70071;SDS011;57434;42.794;23.302;2023-01-31T01:36:09;21.20;;;7.60;;
70071;SDS011;57434;42.794;23.302;2023-01-31T01:37:14;22.30;;;8.90;;
70071;SDS011;57434;42.794;23.302;2023-01-31T01:38:16;22.33;;;7.30;;
70071;SDS011;57434;42.794;23.302;2023-01-31T01:39:17;24.35;;;7.32;;
70071;SDS011;57434;42.794;23.302;2023-01-31T01:40:19;22.23;;;8.17;;
70071;SDS011;57434;42.794;23.302;2023-01-31T01:41:21;20.90;;;7.50;;
70071;SDS011;57434;42.794;23.302;2023-01-31T01:42:24;24.17;;;8.75;;
70071;SDS011;57434;42.794;23.302;2023-01-31T01:43:43;21.67;;;7.93;;
70071;SDS011;57434;42.794;23.302;2023-01-31T01:44:56;18.65;;;7.97;;
70071;SDS011;57434;42.794;23.302;2023-01-31T01:45:59;22.58;;;9.10;;
70071;SDS011;57434;42.794;23.302;2023-01-31T01:47:01;21.02;;;7.97;;
70071;SDS011;57434;42.794;23.302;2023-01-31T01:48:04;20.80;;;7.05;;
70071;SDS011;57434;42.794;23.302;2023-01-31T01:49:17;22.13;;;9.13;;
70071;SDS011;57434;42.794;23.302;2023-01-31T01:50:37;21.70;;;7.20;;
70071;SDS011;57434;42.794;23.302;2023-01-31T01:51:41;22.63;;;7.60;;
70071;SDS011;57434;42.794;23.302;2023-01-31T01:53:31;24.10;;;7.82;;
70071;SDS011;57434;42.794;23.302;2023-01-31T01:54:20;21.42;;;7.05;;
70071;SDS011;57434;42.794;23.302;2023-01-31T01:55:29;19.23;;;7.55;;
70071;SDS011;57434;42.794;23.302;2023-01-31T01:56:38;20.80;;;7.72;;
70071;SDS011;57434;42.794;23.302;2023-01-31T01:57:44;18.92;;;8.48;;
70071;SDS011;57434;42.794;23.302;2023-01-31T02:00:09;19.45;;;7.78;;
70071;SDS011;57434;42.794;23.302;2023-01-31T02:01:15;20.30;;;7.90;;
70071;SDS011;57434;42.794;23.302;2023-01-31T02:02:17;20.00;;;7.03;;
70071;SDS011;57434;42.794;23.302;2023-01-31T02:03:20;20.47;;;6.87;;
70071;SDS011;57434;42.794;23.302;2023-01-31T02:04:24;21.13;;;6.95;;
70071;SDS011;57434;42.794;23.302;2023-01-31T02:05:43;24.20;;;9.68;;
70071;SDS011;57434;42.794;23.302;2023-01-31T02:06:47;32.47;;;13.13;;
70071;SDS011;57434;42.794;23.302;2023-01-31T02:07:49;35.10;;;12.38;;
70071;SDS011;57434;42.794;23.302;2023-01-31T02:08:52;38.35;;;13.38;;
70071;SDS011;57434;42.794;23.302;2023-01-31T02:10:06;35.13;;;13.05;;
70071;SDS011;57434;42.794;23.302;2023-01-31T02:11:26;25.85;;;10.30;;
70071;SDS011;57434;42.794;23.302;2023-01-31T02:12:30;26.15;;;9.57;;
70071;SDS011;57434;42.794;23.302;2023-01-31T02:13:34;20.23;;;8.88;;
70071;SDS011;57434;42.794;23.302;2023-01-31T02:14:36;26.60;;;9.73;;
70071;SDS011;57434;42.794;23.302;2023-01-31T02:15:38;26.98;;;11.05;;
70071;SDS011;57434;42.794;23.302;2023-01-31T02:16:39;38.58;;;14.68;;
70071;SDS011;57434;42.794;23.302;2023-01-31T02:17:41;33.22;;;11.55;;
70071;SDS011;57434;42.794;23.302;2023-01-31T02:18:43;32.75;;;13.23;;
70071;SDS011;57434;42.794;23.302;2023-01-31T02:25:47;19.45;;;7.68;;
70071;SDS011;57434;42.794;23.302;2023-01-31T02:36:18;21.05;;;6.90;;
70071;SDS011;57434;42.794;23.302;2023-01-31T02:37:30;15.05;;;5.78;;
70071;SDS011;57434;42.794;23.302;2023-01-31T02:40:19;16.48;;;6.07;;
70071;SDS011;57434;42.794;23.302;2023-01-31T02:46:28;14.13;;;5.70;;
70071;SDS011;57434;42.794;23.302;2023-01-31T02:47:47;15.45;;;5.93;;
70071;SDS011;57434;42.794;23.302;2023-01-31T02:49:06;8.82;;;4.40;;
70071;SDS011;57434;42.794;23.302;2023-01-31T02:50:20;17.23;;;6.85;;
70071;SDS011;57434;42.794;23.302;2023-01-31T02:51:31;18.17;;;6.05;;
70071;SDS011;57434;42.794;23.302;2023-01-31T02:52:51;13.77;;;5.78;;
70071;SDS011;57434;42.794;23.302;2023-01-31T02:54:07;14.40;;;5.25;;
70071;SDS011;57434;42.794;23.302;2023-01-31T02:55:28;17.67;;;5.87;;
70071;SDS011;57434;42.794;23.302;2023-01-31T02:56:31;16.20;;;5.25;;
70071;SDS011;57434;42.794;23.302;2023-01-31T02:57:35;20.67;;;6.00;;
70071;SDS011;57434;42.794;23.302;2023-01-31T02:58:41;14.93;;;6.13;;
70071;SDS011;57434;42.794;23.302;2023-01-31T02:59:45;22.17;;;5.88;;
70071;SDS011;57434;42.794;23.302;2023-01-31T03:00:47;18.25;;;6.00;;
70071;SDS011;57434;42.794;23.302;2023-01-31T03:01:54;14.40;;;6.32;;
70071;SDS011;57434;42.794;23.302;2023-01-31T03:02:59;18.45;;;5.82;;
70071;SDS011;57434;42.794;23.302;2023-01-31T03:04:09;18.77;;;6.55;;
70071;SDS011;57434;42.794;23.302;2023-01-31T03:05:17;15.65;;;5.63;;
70071;SDS011;57434;42.794;23.302;2023-01-31T03:07:23;16.92;;;6.63;;
70071;SDS011;57434;42.794;23.302;2023-01-31T03:08:28;18.77;;;6.22;;
70071;SDS011;57434;42.794;23.302;2023-01-31T03:11:10;20.50;;;7.40;;
70071;SDS011;57434;42.794;23.302;2023-01-31T03:14:07;18.35;;;7.00;;
70071;SDS011;57434;42.794;23.302;2023-01-31T03:16:42;16.40;;;6.88;;
70071;SDS011;57434;42.794;23.302;2023-01-31T03:17:57;16.20;;;6.00;;
70071;SDS011;57434;42.794;23.302;2023-01-31T03:19:16;19.00;;;6.60;;
70071;SDS011;57434;42.794;23.302;2023-01-31T03:20:26;18.02;;;6.35;;
70071;SDS011;57434;42.794;23.302;2023-01-31T03:21:35;16.65;;;7.18;;
70071;SDS011;57434;42.794;23.302;2023-01-31T03:22:58;16.73;;;6.80;;
70071;SDS011;57434;42.794;23.302;2023-01-31T03:24:19;13.25;;;5.40;;
70071;SDS011;57434;42.794;23.302;2023-01-31T03:25:23;15.82;;;6.32;;
70071;SDS011;57434;42.794;23.302;2023-01-31T03:26:28;17.55;;;6.13;;
70071;SDS011;57434;42.794;23.302;2023-01-31T03:27:30;20.15;;;5.95;;
70071;SDS011;57434;42.794;23.302;2023-01-31T03:28:33;16.70;;;6.28;;
70071;SDS011;57434;42.794;23.302;2023-01-31T03:29:36;18.63;;;5.95;;
70071;SDS011;57434;42.794;23.302;2023-01-31T03:30:50;13.23;;;5.37;;
70071;SDS011;57434;42.794;23.302;2023-01-31T03:31:57;14.50;;;5.25;;
70071;SDS011;57434;42.794;23.302;2023-01-31T03:33:05;18.08;;;6.32;;
70071;SDS011;57434;42.794;23.302;2023-01-31T03:34:20;14.20;;;5.97;;
70071;SDS011;57434;42.794;23.302;2023-01-31T03:35:23;14.13;;;5.50;;
70071;SDS011;57434;42.794;23.302;2023-01-31T03:38:50;15.13;;;6.38;;
70071;SDS011;57434;42.794;23.302;2023-01-31T03:40:04;14.05;;;5.95;;
70071;SDS011;57434;42.794;23.302;2023-01-31T03:42:54;13.33;;;5.43;;
70071;SDS011;57434;42.794;23.302;2023-01-31T03:43:59;19.83;;;6.00;;
70071;SDS011;57434;42.794;23.302;2023-01-31T03:45:11;17.50;;;6.03;;
70071;SDS011;57434;42.794;23.302;2023-01-31T03:46:29;14.40;;;6.50;;
70071;SDS011;57434;42.794;23.302;2023-01-31T03:47:38;15.32;;;5.50;;
70071;SDS011;57434;42.794;23.302;2023-01-31T03:48:44;20.63;;;6.32;;
70071;SDS011;57434;42.794;23.302;2023-01-31T03:49:49;15.40;;;6.18;;
70071;SDS011;57434;42.794;23.302;2023-01-31T03:50:55;15.98;;;5.88;;
70071;SDS011;57434;42.794;23.302;2023-01-31T03:52:03;19.63;;;6.88;;
70071;SDS011;57434;42.794;23.302;2023-01-31T03:53:15;17.45;;;7.35;;
70071;SDS011;57434;42.794;23.302;2023-01-31T03:54:26;16.57;;;7.23;;
70071;SDS011;57434;42.794;23.302;2023-01-31T03:55:42;17.33;;;6.28;;
70071;SDS011;57434;42.794;23.302;2023-01-31T03:56:58;16.25;;;5.88;;
70071;SDS011;57434;42.794;23.302;2023-01-31T03:58:04;14.68;;;6.15;;
70071;SDS011;57434;42.794;23.302;2023-01-31T03:59:11;14.35;;;6.05;;
70071;SDS011;57434;42.794;23.302;2023-01-31T04:00:17;18.00;;;6.85;;
70071;SDS011;57434;42.794;23.302;2023-01-31T04:01:21;18.95;;;6.72;;
70071;SDS011;57434;42.794;23.302;2023-01-31T04:02:28;17.90;;;5.95;;
70071;SDS011;57434;42.794;23.302;2023-01-31T04:04:55;20.10;;;7.00;;
70071;SDS011;57434;42.794;23.302;2023-01-31T04:06:03;17.03;;;6.00;;
70071;SDS011;57434;42.794;23.302;2023-01-31T04:07:06;16.95;;;6.50;;
70071;SDS011;57434;42.794;23.302;2023-01-31T04:08:07;19.67;;;6.45;;
70071;SDS011;57434;42.794;23.302;2023-01-31T04:09:09;16.10;;;6.47;;
70071;SDS011;57434;42.794;23.302;2023-01-31T04:10:13;18.23;;;6.15;;
70071;SDS011;57434;42.794;23.302;2023-01-31T04:11:18;19.52;;;6.50;;
70071;SDS011;57434;42.794;23.302;2023-01-31T04:12:21;19.92;;;7.50;;
70071;SDS011;57434;42.794;23.302;2023-01-31T04:13:24;22.85;;;6.45;;
70071;SDS011;57434;42.794;23.302;2023-01-31T04:14:26;21.67;;;6.78;;
70071;SDS011;57434;42.794;23.302;2023-01-31T04:15:28;18.40;;;5.97;;
70071;SDS011;57434;42.794;23.302;2023-01-31T04:16:30;14.10;;;6.53;;
70071;SDS011;57434;42.794;23.302;2023-01-31T04:17:32;19.02;;;7.10;;
70071;SDS011;57434;42.794;23.302;2023-01-31T04:18:34;24.77;;;7.72;;
70071;SDS011;57434;42.794;23.302;2023-01-31T04:19:38;14.27;;;5.93;;
70071;SDS011;57434;42.794;23.302;2023-01-31T04:20:40;21.55;;;7.63;;
70071;SDS011;57434;42.794;23.302;2023-01-31T04:21:42;17.67;;;6.72;;
70071;SDS011;57434;42.794;23.302;2023-01-31T04:22:44;19.63;;;7.40;;
70071;SDS011;57434;42.794;23.302;2023-01-31T04:23:46;16.65;;;6.47;;
70071;SDS011;57434;42.794;23.302;2023-01-31T04:24:48;22.95;;;6.70;;
70071;SDS011;57434;42.794;23.302;2023-01-31T04:25:51;17.35;;;6.57;;
70071;SDS011;57434;42.794;23.302;2023-01-31T04:26:54;17.27;;;6.43;;
70071;SDS011;57434;42.794;23.302;2023-01-31T04:27:56;10.60;;;4.15;;
70071;SDS011;57434;42.794;23.302;2023-01-31T04:28:57;20.05;;;8.15;;
70071;SDS011;57434;42.794;23.302;2023-01-31T04:29:59;18.20;;;6.75;;
70071;SDS011;57434;42.794;23.302;2023-01-31T04:31:01;17.40;;;6.43;;
70071;SDS011;57434;42.794;23.302;2023-01-31T04:32:03;18.98;;;6.97;;
70071;SDS011;57434;42.794;23.302;2023-01-31T04:33:05;16.52;;;6.93;;
70071;SDS011;57434;42.794;23.302;2023-01-31T04:34:07;16.15;;;6.45;;
70071;SDS011;57434;42.794;23.302;2023-01-31T04:35:09;18.70;;;6.97;;
70071;SDS011;57434;42.794;23.302;2023-01-31T04:36:11;15.57;;;6.03;;
70071;SDS011;57434;42.794;23.302;2023-01-31T04:37:13;18.40;;;7.40;;
70071;SDS011;57434;42.794;23.302;2023-01-31T04:38:16;14.18;;;6.15;;
70071;SDS011;57434;42.794;23.302;2023-01-31T04:39:18;23.98;;;8.38;;
70071;SDS011;57434;42.794;23.302;2023-01-31T04:40:19;17.25;;;7.53;;
70071;SDS011;57434;42.794;23.302;2023-01-31T04:41:21;23.00;;;7.78;;
70071;SDS011;57434;42.794;23.302;2023-01-31T04:42:23;22.40;;;7.65;;
70071;SDS011;57434;42.794;23.302;2023-01-31T04:43:25;19.38;;;7.57;;
70071;SDS011;57434;42.794;23.302;2023-01-31T04:44:26;23.52;;;7.80;;
70071;SDS011;57434;42.794;23.302;2023-01-31T04:45:28;23.23;;;9.00;;
70071;SDS011;57434;42.794;23.302;2023-01-31T04:46:30;19.80;;;6.93;;
70071;SDS011;57434;42.794;23.302;2023-01-31T04:47:32;20.40;;;7.27;;
70071;SDS011;57434;42.794;23.302;2023-01-31T04:48:34;26.25;;;8.68;;
70071;SDS011;57434;42.794;23.302;2023-01-31T04:49:35;19.27;;;7.18;;
70071;SDS011;57434;42.794;23.302;2023-01-31T04:50:37;19.38;;;7.47;;
70071;SDS011;57434;42.794;23.302;2023-01-31T04:51:39;18.55;;;7.35;;
70071;SDS011;57434;42.794;23.302;2023-01-31T04:52:41;18.98;;;6.88;;
70071;SDS011;57434;42.794;23.302;2023-01-31T04:53:43;14.25;;;6.68;;
70071;SDS011;57434;42.794;23.302;2023-01-31T04:54:45;24.52;;;8.95;;
70071;SDS011;57434;42.794;23.302;2023-01-31T04:55:46;17.40;;;8.07;;
70071;SDS011;57434;42.794;23.302;2023-01-31T04:56:48;15.13;;;5.88;;
70071;SDS011;57434;42.794;23.302;2023-01-31T04:57:50;23.70;;;9.23;;
70071;SDS011;57434;42.794;23.302;2023-01-31T04:58:52;17.27;;;6.88;;
70071;SDS011;57434;42.794;23.302;2023-01-31T04:59:54;23.48;;;9.10;;
70071;SDS011;57434;42.794;23.302;2023-01-31T05:00:56;20.35;;;8.13;;
70071;SDS011;57434;42.794;23.302;2023-01-31T05:01:58;23.17;;;6.90;;
70071;SDS011;57434;42.794;23.302;2023-01-31T05:02:59;21.55;;;8.20;;
70071;SDS011;57434;42.794;23.302;2023-01-31T05:04:02;19.95;;;7.35;;
70071;SDS011;57434;42.794;23.302;2023-01-31T05:05:04;21.10;;;7.72;;
70071;SDS011;57434;42.794;23.302;2023-01-31T05:06:07;22.00;;;8.20;;
70071;SDS011;57434;42.794;23.302;2023-01-31T05:07:09;14.95;;;7.10;;
70071;SDS011;57434;42.794;23.302;2023-01-31T05:08:11;21.10;;;8.63;;
70071;SDS011;57434;42.794;23.302;2023-01-31T05:09:12;20.25;;;8.82;;
70071;SDS011;57434;42.794;23.302;2023-01-31T05:10:14;22.35;;;8.55;;
70071;SDS011;57434;42.794;23.302;2023-01-31T05:11:16;20.30;;;8.38;;
70071;SDS011;57434;42.794;23.302;2023-01-31T05:12:18;25.55;;;7.85;;
70071;SDS011;57434;42.794;23.302;2023-01-31T05:13:20;19.70;;;8.57;;
70071;SDS011;57434;42.794;23.302;2023-01-31T05:14:22;21.38;;;8.68;;
70071;SDS011;57434;42.794;23.302;2023-01-31T05:15:24;18.88;;;7.93;;
70071;SDS011;57434;42.794;23.302;2023-01-31T05:16:25;18.88;;;7.93;;
70071;SDS011;57434;42.794;23.302;2023-01-31T05:17:27;23.30;;;7.65;;
70071;SDS011;57434;42.794;23.302;2023-01-31T05:18:29;20.87;;;9.23;;
70071;SDS011;57434;42.794;23.302;2023-01-31T05:19:31;20.98;;;8.40;;
70071;SDS011;57434;42.794;23.302;2023-01-31T05:20:35;23.40;;;8.27;;
70071;SDS011;57434;42.794;23.302;2023-01-31T05:21:37;21.92;;;7.20;;
70071;SDS011;57434;42.794;23.302;2023-01-31T05:22:39;20.20;;;7.47;;
70071;SDS011;57434;42.794;23.302;2023-01-31T05:23:41;19.23;;;6.95;;
70071;SDS011;57434;42.794;23.302;2023-01-31T05:24:42;18.63;;;7.45;;
70071;SDS011;57434;42.794;23.302;2023-01-31T05:25:47;17.10;;;6.85;;
70071;SDS011;57434;42.794;23.302;2023-01-31T05:26:50;22.75;;;7.63;;
70071;SDS011;57434;42.794;23.302;2023-01-31T05:27:53;17.52;;;7.40;;
70071;SDS011;57434;42.794;23.302;2023-01-31T05:28:54;18.80;;;7.57;;
70071;SDS011;57434;42.794;23.302;2023-01-31T05:29:56;19.33;;;8.27;;
70071;SDS011;57434;42.794;23.302;2023-01-31T05:31:02;16.23;;;6.93;;
70071;SDS011;57434;42.794;23.302;2023-01-31T05:32:07;20.50;;;7.10;;
70071;SDS011;57434;42.794;23.302;2023-01-31T05:33:09;18.52;;;8.00;;
70071;SDS011;57434;42.794;23.302;2023-01-31T05:34:10;20.60;;;9.02;;
70071;SDS011;57434;42.794;23.302;2023-01-31T05:35:12;23.83;;;9.20;;
70071;SDS011;57434;42.794;23.302;2023-01-31T05:36:14;21.48;;;8.88;;
70071;SDS011;57434;42.794;23.302;2023-01-31T05:37:16;22.05;;;7.05;;
70071;SDS011;57434;42.794;23.302;2023-01-31T05:38:17;20.20;;;7.70;;
70071;SDS011;57434;42.794;23.302;2023-01-31T05:39:19;21.50;;;7.80;;
70071;SDS011;57434;42.794;23.302;2023-01-31T05:40:21;17.95;;;6.90;;
70071;SDS011;57434;42.794;23.302;2023-01-31T05:41:23;19.30;;;8.50;;
70071;SDS011;57434;42.794;23.302;2023-01-31T05:42:25;21.83;;;7.22;;
70071;SDS011;57434;42.794;23.302;2023-01-31T05:43:27;22.05;;;7.40;;
70071;SDS011;57434;42.794;23.302;2023-01-31T05:44:29;19.88;;;7.65;;
70071;SDS011;57434;42.794;23.302;2023-01-31T05:45:30;16.63;;;6.75;;
70071;SDS011;57434;42.794;23.302;2023-01-31T05:46:32;15.88;;;7.10;;
70071;SDS011;57434;42.794;23.302;2023-01-31T05:47:34;19.70;;;7.82;;
70071;SDS011;57434;42.794;23.302;2023-01-31T05:48:36;17.30;;;7.03;;
70071;SDS011;57434;42.794;23.302;2023-01-31T05:49:39;18.97;;;8.53;;
70071;SDS011;57434;42.794;23.302;2023-01-31T05:50:40;14.57;;;6.55;;
70071;SDS011;57434;42.794;23.302;2023-01-31T05:51:42;17.65;;;8.30;;
70071;SDS011;57434;42.794;23.302;2023-01-31T05:52:56;17.75;;;7.78;;
70071;SDS011;57434;42.794;23.302;2023-01-31T05:53:59;15.32;;;6.72;;
70071;SDS011;57434;42.794;23.302;2023-01-31T05:55:01;22.33;;;7.57;;
70071;SDS011;57434;42.794;23.302;2023-01-31T05:56:03;18.27;;;6.88;;
70071;SDS011;57434;42.794;23.302;2023-01-31T05:57:05;20.48;;;9.20;;
70071;SDS011;57434;42.794;23.302;2023-01-31T05:58:07;15.13;;;6.80;;
70071;SDS011;57434;42.794;23.302;2023-01-31T05:59:09;17.20;;;8.32;;
70071;SDS011;57434;42.794;23.302;2023-01-31T06:00:11;16.13;;;6.57;;
70071;SDS011;57434;42.794;23.302;2023-01-31T06:01:18;19.17;;;7.10;;
70071;SDS011;57434;42.794;23.302;2023-01-31T06:02:23;16.77;;;6.68;;
70071;SDS011;57434;42.794;23.302;2023-01-31T06:03:24;22.65;;;8.60;;
70071;SDS011;57434;42.794;23.302;2023-01-31T06:04:26;24.27;;;8.25;;
70071;SDS011;57434;42.794;23.302;2023-01-31T06:05:28;18.05;;;6.35;;
70071;SDS011;57434;42.794;23.302;2023-01-31T06:06:31;17.63;;;6.40;;
70071;SDS011;57434;42.794;23.302;2023-01-31T06:07:33;14.15;;;6.28;;
70071;SDS011;57434;42.794;23.302;2023-01-31T06:08:35;23.40;;;9.82;;
70071;SDS011;57434;42.794;23.302;2023-01-31T06:09:37;14.73;;;5.30;;
70071;SDS011;57434;42.794;23.302;2023-01-31T06:10:39;17.17;;;6.30;;
70071;SDS011;57434;42.794;23.302;2023-01-31T06:11:41;18.73;;;7.43;;
70071;SDS011;57434;42.794;23.302;2023-01-31T06:12:42;22.88;;;8.45;;
70071;SDS011;57434;42.794;23.302;2023-01-31T06:13:44;20.55;;;8.07;;
70071;SDS011;57434;42.794;23.302;2023-01-31T06:14:46;19.23;;;5.88;;
70071;SDS011;57434;42.794;23.302;2023-01-31T06:15:48;19.13;;;7.88;;
70071;SDS011;57434;42.794;23.302;2023-01-31T06:16:50;22.70;;;8.85;;
70071;SDS011;57434;42.794;23.302;2023-01-31T06:17:52;22.08;;;8.80;;
70071;SDS011;57434;42.794;23.302;2023-01-31T06:18:54;24.63;;;9.00;;
70071;SDS011;57434;42.794;23.302;2023-01-31T06:19:56;20.90;;;10.23;;
70071;SDS011;57434;42.794;23.302;2023-01-31T06:20:58;17.17;;;6.73;;
70071;SDS011;57434;42.794;23.302;2023-01-31T06:22:00;25.30;;;10.93;;
70071;SDS011;57434;42.794;23.302;2023-01-31T06:23:01;21.52;;;9.65;;
70071;SDS011;57434;42.794;23.302;2023-01-31T06:24:03;29.98;;;11.68;;
70071;SDS011;57434;42.794;23.302;2023-01-31T06:25:05;20.05;;;8.40;;
70071;SDS011;57434;42.794;23.302;2023-01-31T06:26:08;16.70;;;7.55;;
70071;SDS011;57434;42.794;23.302;2023-01-31T06:27:10;16.60;;;7.78;;
70071;SDS011;57434;42.794;23.302;2023-01-31T06:28:12;22.15;;;7.38;;
70071;SDS011;57434;42.794;23.302;2023-01-31T06:29:13;17.52;;;7.80;;
70071;SDS011;57434;42.794;23.302;2023-01-31T06:30:16;23.08;;;9.43;;
70071;SDS011;57434;42.794;23.302;2023-01-31T06:31:18;22.73;;;8.87;;
70071;SDS011;57434;42.794;23.302;2023-01-31T06:32:20;17.17;;;8.20;;
70071;SDS011;57434;42.794;23.302;2023-01-31T06:33:22;23.30;;;10.40;;
70071;SDS011;57434;42.794;23.302;2023-01-31T06:34:38;23.83;;;10.68;;
70071;SDS011;57434;42.794;23.302;2023-01-31T06:35:40;21.95;;;8.48;;
70071;SDS011;57434;42.794;23.302;2023-01-31T06:36:42;22.73;;;9.70;;
70071;SDS011;57434;42.794;23.302;2023-01-31T06:37:44;22.75;;;9.00;;
70071;SDS011;57434;42.794;23.302;2023-01-31T06:38:49;20.38;;;9.98;;
70071;SDS011;57434;42.794;23.302;2023-01-31T06:39:52;22.42;;;8.68;;
70071;SDS011;57434;42.794;23.302;2023-01-31T06:40:54;22.05;;;8.27;;
70071;SDS011;57434;42.794;23.302;2023-01-31T06:41:56;21.27;;;8.40;;
70071;SDS011;57434;42.794;23.302;2023-01-31T06:43:07;16.90;;;6.63;;
70071;SDS011;57434;42.794;23.302;2023-01-31T06:44:09;20.27;;;7.18;;
70071;SDS011;57434;42.794;23.302;2023-01-31T06:45:10;15.82;;;7.30;;
70071;SDS011;57434;42.794;23.302;2023-01-31T06:46:12;16.92;;;6.82;;
70071;SDS011;57434;42.794;23.302;2023-01-31T06:47:14;20.35;;;7.40;;
70071;SDS011;57434;42.794;23.302;2023-01-31T06:48:16;17.20;;;7.35;;
70071;SDS011;57434;42.794;23.302;2023-01-31T06:49:18;21.02;;;7.18;;
70071;SDS011;57434;42.794;23.302;2023-01-31T06:50:20;20.05;;;8.57;;
70071;SDS011;57434;42.794;23.302;2023-01-31T06:51:22;16.65;;;6.28;;